Time;durP1;ratioP1;P1;durP2;ratioP2;P2;SDS_P1;SDS_P2;PMS_P1;PMS_P2;Temp;Humidity;BMP_temperature;BMP_pressure;BME280_temperature;BME280_humidity;BME280_pressure;Samples;Min_cycle;Max_cycle;Signal;HPM_P1;HPM_P2
2022/06/27 00:01:43;;;;;;;11.32;7.15;;;;;;;17.87;79.56;99779.59;6240465;23;20054;-76
2022/06/27 00:04:08;;;;;;;8.02;5.68;;;;;;;17.84;79.88;99767.22;6240930;23;20485;-76
2022/06/27 00:06:33;;;;;;;7.77;5.33;;;;;;;17.89;80.03;99766.31;6213467;23;20012;-76
2022/06/27 00:08:59;;;;;;;8.25;6.05;;;;;;;17.95;79.78;99780.78;6240544;23;20323;-75
2022/06/27 00:11:24;;;;;;;10.80;7.18;;;;;;;17.80;79.89;99790.22;6245660;23;20008;-84
2022/06/27 00:13:49;;;;;;;15.18;7.38;;;;;;;17.77;78.67;99788.94;6246458;23;20013;-85
2022/06/27 00:16:15;;;;;;;8.10;5.70;;;;;;;17.78;77.64;99798.00;6242022;23;20011;-79
2022/06/27 00:18:40;;;;;;;9.25;5.60;;;;;;;17.80;77.63;99793.81;6241103;23;20221;-78
2022/06/27 00:21:05;;;;;;;9.27;6.40;;;;;;;17.87;77.98;99795.31;6243259;23;20000;-82
2022/06/27 00:23:31;;;;;;;8.85;6.45;;;;;;;17.83;78.39;99806.16;6245999;23;20225;-82
2022/06/27 00:25:56;;;;;;;8.48;6.15;;;;;;;17.89;78.09;99809.59;6242375;23;20035;-76
2022/06/27 00:28:22;;;;;;;9.70;6.55;;;;;;;17.97;78.91;99812.44;6240455;23;20015;-77
2022/06/27 00:30:47;;;;;;;8.23;5.60;;;;;;;17.93;78.09;99810.59;6241417;23;20081;-78
2022/06/27 00:33:12;;;;;;;8.85;5.80;;;;;;;17.96;77.98;99812.72;6241016;23;20063;-78
2022/06/27 00:35:38;;;;;;;8.90;5.85;;;;;;;18.05;77.87;99819.13;6240314;23;20008;-76
2022/06/27 00:38:04;;;;;;;8.63;5.53;;;;;;;17.83;78.46;99825.47;6240453;23;20027;-78
2022/06/27 00:40:29;;;;;;;9.45;6.47;;;;;;;17.85;79.20;99815.75;6240336;23;20042;-78
2022/06/27 00:42:54;;;;;;;8.00;5.63;;;;;;;17.92;78.37;99814.50;6240300;23;20526;-76
2022/06/27 00:45:20;;;;;;;9.15;6.20;;;;;;;17.86;79.66;99822.06;6241753;23;20004;-80
2022/06/27 00:47:45;;;;;;;12.45;6.68;;;;;;;17.87;79.08;99820.94;6243241;23;20000;-80
2022/06/27 00:50:11;;;;;;;10.70;7.57;;;;;;;17.87;79.21;99818.19;6243932;23;20320;-82
2022/06/27 00:52:37;;;;;;;9.40;5.90;;;;;;;17.71;80.04;99818.56;6244104;23;20051;-81
2022/06/27 00:55:04;;;;;;;11.68;6.50;;;;;;;17.77;80.18;99813.75;6242950;23;20019;-76
2022/06/27 00:57:30;;;;;;;11.32;7.05;;;;;;;17.79;80.71;99805.16;6240150;23;20364;-76
2022/06/27 00:59:55;;;;;;;10.48;7.03;;;;;;;17.80;80.72;99806.75;6240396;23;20017;-76
2022/06/27 01:02:21;;;;;;;15.38;8.18;;;;;;;17.83;80.37;99809.75;6240362;23;20000;-76
2022/06/27 01:04:46;;;;;;;11.73;7.60;;;;;;;17.75;81.05;99804.97;6240448;23;20008;-81
2022/06/27 01:07:12;;;;;;;11.30;6.32;;;;;;;17.80;80.84;99807.59;6243765;23;20015;-82
2022/06/27 01:09:39;;;;;;;11.25;7.38;;;;;;;17.69;81.72;99806.22;6243192;23;20011;-76
2022/06/27 01:12:05;;;;;;;8.68;6.68;;;;;;;17.65;81.88;99796.94;6240223;23;20507;-76
2022/06/27 01:14:30;;;;;;;14.80;6.32;;;;;;;17.77;82.24;99782.59;6240470;23;20066;-77
2022/06/27 01:16:56;;;;;;;11.50;7.07;;;;;;;17.74;81.60;99779.34;6240371;23;20539;-77
2022/06/27 01:19:22;;;;;;;14.90;8.45;;;;;;;17.56;82.42;99783.91;6240767;23;20004;-78
2022/06/27 01:21:50;;;;;;;15.32;8.63;;;;;;;17.64;83.34;99778.75;6240030;23;20004;-77
2022/06/27 01:24:17;;;;;;;14.45;7.22;;;;;;;17.69;83.40;99767.63;6239275;23;20432;-76
2022/06/27 01:26:43;;;;;;;12.95;7.60;;;;;;;17.68;83.47;99772.31;6239503;23;20000;-77
2022/06/27 01:29:08;;;;;;;11.90;8.23;;;;;;;17.59;84.58;99769.47;6239844;23;20011;-77
2022/06/27 01:31:35;;;;;;;15.82;9.82;;;;;;;17.61;85.12;99774.69;6239637;23;20039;-77
2022/06/27 01:34:00;;;;;;;18.98;8.32;;;;;;;17.48;85.26;99773.63;6241677;23;20043;-77
2022/06/27 01:36:44;;;;;;;13.75;9.27;;;;;;;17.65;85.24;99767.44;6241379;23;20004;-78
2022/06/27 01:39:24;;;;;;;10.32;7.95;;;;;;;17.64;85.24;99753.94;6215078;23;20015;-77
2022/06/27 01:41:55;;;;;;;10.50;6.90;;;;;;;17.77;84.10;99755.03;6246349;23;20015;-84
2022/06/27 01:44:23;;;;;;;10.88;7.13;;;;;;;17.71;84.66;99759.84;6246958;23;20008;-84
2022/06/27 01:46:50;;;;;;;14.05;8.50;;;;;;;17.78;84.44;99768.50;6247851;23;20000;-84
2022/06/27 01:49:17;;;;;;;15.85;6.97;;;;;;;17.72;84.66;99767.81;6248125;23;20012;-84
2022/06/27 01:51:44;;;;;;;13.95;8.27;;;;;;;17.73;85.26;99760.34;6247724;23;20008;-83
2022/06/27 01:54:14;;;;;;;9.77;7.93;;;;;;;17.75;85.20;99763.63;6247680;23;20011;-84
2022/06/27 01:56:41;;;;;;;12.75;9.30;;;;;;;17.67;85.11;99753.34;6242294;23;20050;-76
2022/06/27 01:59:07;;;;;;;14.63;8.80;;;;;;;17.67;83.72;99772.63;6242018;23;20420;-76
2022/06/27 02:01:32;;;;;;;10.43;7.43;;;;;;;17.64;84.71;99787.84;6246655;23;20049;-83
2022/06/27 02:03:59;;;;;;;10.93;6.70;;;;;;;17.66;84.28;99790.28;6247000;23;20031;-82
2022/06/27 02:06:25;;;;;;;12.30;8.05;;;;;;;17.79;83.29;99786.66;6242374;23;20019;-77
2022/06/27 02:08:52;;;;;;;10.70;7.18;;;;;;;17.73;83.25;99774.97;6242158;23;20032;-77
2022/06/27 02:11:18;;;;;;;10.73;7.22;;;;;;;17.85;83.47;99760.59;6241917;23;20023;-75
2022/06/27 02:13:44;;;;;;;8.90;6.60;;;;;;;17.93;83.11;99752.69;6241268;23;20005;-74
2022/06/27 02:16:12;;;;;;;12.13;7.82;;;;;;;17.93;83.67;99745.25;6241498;23;20083;-77
2022/06/27 02:18:39;;;;;;;12.93;8.70;;;;;;;17.82;84.10;99743.84;6241865;23;20012;-77
2022/06/27 02:21:04;;;;;;;15.25;8.70;;;;;;;17.87;84.12;99735.47;6241074;23;20000;-77
2022/06/27 02:23:30;;;;;;;15.70;8.82;;;;;;;17.71;85.11;99732.28;6241912;23;20016;-77
2022/06/27 02:25:56;;;;;;;13.43;8.75;;;;;;;17.66;85.16;99729.63;6240878;23;20460;-77
2022/06/27 02:28:22;;;;;;;10.50;7.53;;;;;;;17.83;84.64;99720.69;6241134;23;20003;-77
2022/06/27 02:30:49;;;;;;;12.45;8.57;;;;;;;17.70;85.86;99711.34;6241362;23;20061;-77
2022/06/27 02:33:14;;;;;;;11.95;8.15;;;;;;;17.63;85.91;99692.50;6240969;23;20000;-77
2022/06/27 02:35:40;;;;;;;13.25;8.73;;;;;;;17.54;86.33;99695.19;6240762;23;20019;-77
2022/06/27 02:38:09;;;;;;;13.98;9.75;;;;;;;17.50;86.23;99689.50;6241302;23;20316;-77
2022/06/27 02:40:35;;;;;;;11.45;8.77;;;;;;;17.60;85.46;99693.13;6244164;23;20054;-84
2022/06/27 02:43:01;;;;;;;10.88;8.25;;;;;;;17.55;85.36;99696.84;6246905;23;20004;-84
2022/06/27 02:45:29;;;;;;;10.65;7.68;;;;;;;17.51;85.67;99687.56;6244074;23;20000;-77
2022/06/27 02:47:57;;;;;;;11.52;7.30;;;;;;;17.70;84.74;99689.28;6241512;23;20008;-77
2022/06/27 02:50:26;;;;;;;12.88;7.55;;;;;;;17.68;84.75;99689.63;6242089;23;20042;-76
2022/06/27 02:52:55;;;;;;;14.77;8.63;;;;;;;17.86;83.72;99684.19;6241375;23;20197;-76
2022/06/27 02:55:28;;;;;;;11.43;8.93;;;;;;;17.78;82.51;99702.31;6242303;23;20558;-76
2022/06/27 02:58:00;;;;;;;13.65;8.02;;;;;;;17.77;83.01;99697.94;6241450;23;20542;-77
2022/06/27 03:00:29;;;;;;;12.35;8.73;;;;;;;17.87;82.36;99702.38;6243711;23;20032;-84
2022/06/27 03:02:56;;;;;;;12.25;8.40;;;;;;;17.71;82.69;99704.72;6246988;23;20061;-83
2022/06/27 03:05:22;;;;;;;12.65;8.45;;;;;;;17.87;82.17;99699.63;6244244;23;20036;-74
2022/06/27 03:07:47;;;;;;;22.40;8.90;;;;;;;17.77;82.26;99697.94;6240746;23;19997;-74
2022/06/27 03:10:13;;;;;;;11.02;8.55;;;;;;;17.80;81.75;99694.53;6241949;23;20546;-82
2022/06/27 03:12:39;;;;;;;15.27;9.18;;;;;;;17.74;82.33;99696.63;6245593;23;20067;-82
2022/06/27 03:15:05;;;;;;;12.50;9.10;;;;;;;17.68;82.74;99695.13;6244651;23;20035;-77
2022/06/27 03:17:31;;;;;;;13.30;9.50;;;;;;;17.67;82.27;99700.97;6240734;23;20027;-76
2022/06/27 03:19:56;;;;;;;14.60;10.60;;;;;;;17.75;82.01;99705.72;6241204;23;20031;-78
2022/06/27 03:22:21;;;;;;;13.38;8.43;;;;;;;17.75;81.82;99694.69;6240838;23;20033;-78
2022/06/27 03:24:47;;;;;;;10.90;8.35;;;;;;;17.60;82.98;99699.47;6240969;23;20016;-76
2022/06/27 03:27:12;;;;;;;12.07;8.60;;;;;;;17.75;82.52;99697.44;6241058;23;20031;-77
2022/06/27 03:29:37;;;;;;;14.52;8.63;;;;;;;17.67;82.60;99703.72;6240465;23;20576;-76
2022/06/27 03:32:03;;;;;;;17.10;9.98;;;;;;;17.72;82.91;99698.06;6240559;23;20000;-76
2022/06/27 03:34:29;;;;;;;13.38;8.82;;;;;;;17.87;82.57;99707.91;6240862;23;20028;-77
2022/06/27 03:36:54;;;;;;;13.07;8.10;;;;;;;17.85;81.95;99715.66;6240297;23;20030;-77
2022/06/27 03:39:20;;;;;;;11.95;8.48;;;;;;;17.92;81.51;99704.19;6240223;23;20007;-77
2022/06/27 03:41:45;;;;;;;15.18;9.68;;;;;;;17.94;81.37;99701.94;6240176;23;20087;-74
2022/06/27 03:44:11;;;;;;;15.80;8.03;;;;;;;17.90;82.19;99704.50;6240314;23;20436;-74
2022/06/27 03:46:37;;;;;;;23.55;9.35;;;;;;;17.81;81.72;99703.63;6245477;23;20244;-84
2022/06/27 03:51:47;;;;;;;15.68;8.98;;;;;;;17.66;83.32;99710.34;6240440;23;20065;-76
2022/06/27 03:54:13;;;;;;;13.10;8.52;;;;;;;17.56;83.88;99723.25;6240492;23;20422;-76
2022/06/27 03:56:38;;;;;;;13.63;9.13;;;;;;;17.53;83.99;99731.34;6241698;23;20515;-78
2022/06/27 03:59:03;;;;;;;13.70;9.77;;;;;;;17.54;83.75;99735.72;6241174;23;20011;-77
2022/06/27 04:01:29;;;;;;;16.47;9.03;;;;;;;17.63;83.40;99755.91;6244483;23;20229;-80
2022/06/27 04:03:54;;;;;;;14.02;8.10;;;;;;;17.67;83.04;99758.84;6245750;23;20257;-81
2022/06/27 04:06:19;;;;;;;15.75;9.00;;;;;;;17.66;83.83;99763.53;6240587;23;20061;-74
2022/06/27 04:08:45;;;;;;;17.05;8.70;;;;;;;17.56;83.83;99770.13;6240026;23;20008;-74
2022/06/27 04:11:10;;;;;;;14.48;8.05;;;;;;;17.66;84.03;99757.22;6240377;23;20015;-76
2022/06/27 04:13:35;;;;;;;11.10;7.50;;;;;;;17.75;82.96;99752.59;6240428;23;20004;-78
2022/06/27 04:16:01;;;;;;;14.15;8.07;;;;;;;17.85;81.98;99749.56;6241151;23;20535;-77
2022/06/27 04:18:26;;;;;;;11.70;7.60;;;;;;;17.90;81.10;99751.38;6240959;23;20004;-78
2022/06/27 04:20:51;;;;;;;12.35;8.30;;;;;;;17.90;81.45;99756.09;6240217;23;20012;-76
2022/06/27 04:23:17;;;;;;;11.10;6.38;;;;;;;17.72;81.09;99736.66;6240381;23;20420;-76
2022/06/27 04:25:42;;;;;;;12.75;6.90;;;;;;;17.76;81.37;99740.41;6243228;23;20004;-84
2022/06/27 04:28:08;;;;;;;10.98;7.57;;;;;;;17.66;82.75;99724.94;6245778;23;20008;-83
2022/06/27 04:30:33;;;;;;;23.90;8.20;;;;;;;17.48;84.02;99713.00;6244857;23;20032;-81
2022/06/27 04:32:59;;;;;;;13.93;7.95;;;;;;;17.50;84.70;99717.06;6243739;23;20004;-81
2022/06/27 04:35:25;;;;;;;11.82;8.43;;;;;;;17.47;83.74;99722.41;6243373;23;20474;-82
2022/06/27 04:37:50;;;;;;;12.30;8.18;;;;;;;17.39;84.79;99735.78;6244983;23;20011;-81
2022/06/27 04:40:17;;;;;;;10.70;7.57;;;;;;;17.36;85.42;99750.19;6241925;23;20011;-83
2022/06/27 04:42:43;;;;;;;14.55;7.90;;;;;;;17.45;84.98;99749.44;6241708;23;19996;-83
2022/06/27 04:45:09;;;;;;;15.63;9.20;;;;;;;17.40;84.87;99742.09;6245178;23;20000;-83
2022/06/27 04:47:37;;;;;;;14.77;8.73;;;;;;;17.39;85.50;99755.06;6245499;23;20057;-83
2022/06/27 04:50:03;;;;;;;10.50;7.75;;;;;;;17.44;84.87;99753.31;6245538;23;20015;-84
2022/06/27 04:52:29;;;;;;;11.60;7.75;;;;;;;17.44;85.55;99751.38;6245911;23;20004;-86
2022/06/27 04:54:54;;;;;;;15.55;7.88;;;;;;;17.39;86.17;99741.28;6246123;23;20035;-83
2022/06/27 04:57:19;;;;;;;13.32;8.57;;;;;;;17.56;85.53;99727.94;6245165;23;20005;-80
2022/06/27 04:59:45;;;;;;;18.10;9.52;;;;;;;17.43;85.80;99737.94;6218207;23;20004;-78
2022/06/27 05:02:10;;;;;;;16.98;9.38;;;;;;;17.38;86.75;99728.66;6241469;23;20421;-79
2022/06/27 05:04:35;;;;;;;17.50;9.77;;;;;;;17.33;86.75;99725.22;6241221;23;20435;-86
2022/06/27 05:07:01;;;;;;;15.77;9.20;;;;;;;17.33;87.11;99717.72;6246387;23;20257;-85
2022/06/27 05:09:26;;;;;;;14.18;9.20;;;;;;;17.38;86.48;99723.13;6248692;23;20218;-86
2022/06/27 05:11:54;;;;;;;19.90;8.35;;;;;;;17.47;86.96;99717.69;6248653;23;20071;-86
2022/06/27 05:14:20;;;;;;;12.45;7.93;;;;;;;17.44;86.44;99665.13;6247874;23;20000;-87
2022/06/27 05:16:45;;;;;;;13.52;7.13;;;;;;;17.41;86.33;99635.47;6243499;23;20004;-78
2022/06/27 05:19:12;;;;;;;18.70;9.63;;;;;;;17.41;87.02;99636.25;6242851;23;20331;-79
2022/06/27 05:21:37;;;;;;;12.57;8.65;;;;;;;17.51;86.94;99662.78;6246866;23;20066;-84
2022/06/27 05:24:03;;;;;;;13.85;8.73;;;;;;;17.64;86.78;99679.53;6247439;23;20331;-85
2022/06/27 05:26:29;;;;;;;19.08;11.52;;;;;;;17.70;87.37;99692.06;6247961;23;20008;-84
2022/06/27 05:28:55;;;;;;;13.27;8.52;;;;;;;17.80;85.94;99702.00;6247790;23;20639;-84
2022/06/27 05:31:20;;;;;;;14.02;7.85;;;;;;;17.92;85.06;99698.69;6243582;23;20035;-77
2022/06/27 05:33:46;;;;;;;14.25;8.48;;;;;;;17.92;85.19;99682.94;6241488;23;20110;-76
2022/06/27 05:36:11;;;;;;;16.77;11.00;;;;;;;18.09;85.32;99676.69;6241913;23;20012;-78
2022/06/27 05:38:37;;;;;;;14.07;8.63;;;;;;;18.15;84.57;99673.78;6242913;23;20218;-78
2022/06/27 05:41:03;;;;;;;15.85;8.55;;;;;;;18.38;83.98;99671.81;6242459;23;20011;-79
2022/06/27 05:43:30;;;;;;;10.70;6.97;;;;;;;18.54;82.81;99652.84;6242864;23;20004;-79
2022/06/27 05:45:55;;;;;;;10.27;6.18;;;;;;;18.74;81.41;99650.59;6244859;23;20214;-86
2022/06/27 05:48:21;;;;;;;16.20;8.50;;;;;;;18.60;82.87;99649.91;6246774;23;20439;-86
2022/06/27 05:50:47;;;;;;;14.23;6.82;;;;;;;19.08;81.38;99666.72;6244102;23;20012;-78
2022/06/27 05:53:13;;;;;;;13.50;7.50;;;;;;;19.15;80.48;99671.75;6241771;23;20031;-78
2022/06/27 05:55:40;;;;;;;32.25;10.45;;;;;;;19.02;81.20;99677.91;6244263;23;20428;-86
2022/06/27 05:58:07;;;;;;;16.67;9.52;;;;;;;18.97;80.83;99678.06;6220402;23;20093;-86
2022/06/27 06:00:32;;;;;;;16.92;9.15;;;;;;;19.06;81.81;99677.28;6247374;23;20008;-86
2022/06/27 06:02:58;;;;;;;19.48;8.15;;;;;;;19.08;80.97;99675.78;6247241;23;20004;-85
2022/06/27 06:05:23;;;;;;;12.48;8.23;;;;;;;18.95;81.40;99688.63;6245147;23;20451;-80
2022/06/27 06:07:49;;;;;;;14.25;9.00;;;;;;;18.74;82.04;99694.78;6242366;23;20088;-79
2022/06/27 06:10:15;;;;;;;13.15;7.75;;;;;;;18.87;81.32;99706.00;6242346;23;20004;-80
2022/06/27 06:12:41;;;;;;;13.63;9.13;;;;;;;18.75;82.65;99712.16;6242958;23;20079;-79
2022/06/27 06:15:08;;;;;;;19.65;8.82;;;;;;;18.53;82.12;99728.50;6243431;23;20038;-81
2022/06/27 06:17:36;;;;;;;12.55;8.32;;;;;;;18.39;83.41;99725.84;6244724;23;19996;-81
2022/06/27 06:20:04;;;;;;;12.23;8.80;;;;;;;18.57;83.22;99727.88;6243432;23;20079;-79
2022/06/27 06:22:29;;;;;;;14.02;9.25;;;;;;;18.51;82.88;99725.22;6242153;23;20000;-79
2022/06/27 06:24:54;;;;;;;12.05;8.90;;;;;;;18.36;83.65;99718.22;6241879;23;20019;-78
2022/06/27 06:27:21;;;;;;;12.25;8.20;;;;;;;18.45;82.85;99709.94;6242762;23;20008;-77
2022/06/27 06:29:47;;;;;;;15.68;8.88;;;;;;;18.42;82.46;99700.38;6242950;23;20042;-78
2022/06/27 06:32:12;;;;;;;15.02;11.65;;;;;;;18.47;83.63;99715.97;6241857;23;20628;-78
2022/06/27 06:34:38;;;;;;;16.73;10.57;;;;;;;18.39;84.35;99723.09;6242566;23;20010;-84
2022/06/27 06:37:06;;;;;;;19.45;11.05;;;;;;;18.47;83.05;99732.53;6246294;23;20011;-85
2022/06/27 06:39:32;;;;;;;16.50;11.07;;;;;;;18.39;83.33;99725.84;6246649;23;20075;-78
2022/06/27 06:41:57;;;;;;;16.45;10.55;;;;;;;18.57;82.56;99727.88;6240456;23;20081;-76
2022/06/27 06:44:24;;;;;;;18.60;10.60;;;;;;;18.66;82.20;99742.50;6240859;23;20727;-76
2022/06/27 06:46:50;;;;;;;18.65;13.77;;;;;;;18.84;83.10;99759.09;6240898;23;20015;-76
2022/06/27 06:49:15;;;;;;;25.90;13.32;;;;;;;18.95;82.19;99765.16;6213921;23;20448;-76
2022/06/27 06:51:42;;;;;;;21.52;15.15;;;;;;;18.58;82.31;99784.69;6243793;23;20015;-82
2022/06/27 06:54:08;;;;;;;20.17;11.95;;;;;;;18.47;83.61;99797.97;6244842;23;20306;-82
2022/06/27 06:56:34;;;;;;;19.55;12.98;;;;;;;18.49;84.67;99804.00;6242622;23;20008;-78
2022/06/27 06:59:01;;;;;;;21.83;12.93;;;;;;;18.60;84.55;99790.69;6242389;23;20134;-78
2022/06/27 07:01:27;;;;;;;26.50;14.15;;;;;;;18.50;84.40;99789.88;6244626;23;20012;-81
2022/06/27 07:03:55;;;;;;;20.83;13.70;;;;;;;18.45;84.39;99790.00;6245378;23;20083;-82
2022/06/27 07:06:26;;;;;;;20.58;14.95;;;;;;;18.41;84.20;99794.50;6215409;23;20015;-78
2022/06/27 07:08:53;;;;;;;21.05;14.07;;;;;;;18.26;84.74;99788.28;6241780;23;20005;-79
2022/06/27 07:11:21;;;;;;;20.58;13.57;;;;;;;18.39;84.44;99772.75;6241225;23;20023;-77
2022/06/27 07:13:47;;;;;;;19.85;13.50;;;;;;;18.61;84.20;99756.47;6241302;23;20029;-77
2022/06/27 07:16:12;;;;;;;18.33;13.32;;;;;;;18.63;83.03;99776.28;6240687;23;20007;-76
2022/06/27 07:18:38;;;;;;;22.53;14.23;;;;;;;18.77;82.97;99782.47;6241031;23;19996;-76
2022/06/27 07:21:04;;;;;;;18.85;12.73;;;;;;;18.76;82.79;99775.34;6216660;23;20257;-82
2022/06/27 07:23:29;;;;;;;21.98;13.63;;;;;;;18.58;84.12;99774.47;6245243;23;20027;-82
2022/06/27 07:25:55;;;;;;;28.70;16.20;;;;;;;18.48;85.37;99778.31;6246226;23;20020;-84
2022/06/27 07:28:22;;;;;;;24.50;15.40;;;;;;;18.51;84.68;99785.97;6246832;23;20672;-84
2022/06/27 07:30:48;;;;;;;20.58;14.00;;;;;;;18.60;84.28;99782.41;6244315;23;20000;-78
2022/06/27 07:33:14;;;;;;;19.20;14.57;;;;;;;18.43;83.95;99784.78;6241545;23;20011;-79
2022/06/27 07:35:39;;;;;;;27.63;16.52;;;;;;;18.57;83.66;99791.34;6241395;23;20340;-78
2022/06/27 07:38:05;;;;;;;19.00;14.60;;;;;;;18.50;83.17;99792.63;6242316;23;20012;-78
2022/06/27 07:40:30;;;;;;;29.65;16.92;;;;;;;18.51;83.98;99785.97;6244046;23;20000;-85
2022/06/27 07:42:55;;;;;;;22.67;15.48;;;;;;;18.56;84.98;99796.06;6246880;23;20004;-85
2022/06/27 07:45:23;;;;;;;25.40;14.98;;;;;;;18.60;84.79;99783.25;6244706;23;20000;-79
2022/06/27 07:47:50;;;;;;;26.50;17.50;;;;;;;18.48;85.36;99791.31;6241935;23;20014;-79
2022/06/27 07:53:17;;;;;;;24.00;15.10;;;;;;;18.54;84.49;99796.38;6240166;23;20012;-78
2022/06/27 07:55:54;;;;;;;26.27;17.90;;;;;;;18.57;85.63;99805.94;6241862;23;20004;-79
2022/06/27 07:58:30;;;;;;;32.83;19.23;;;;;;;18.61;84.92;99811.66;6242331;23;20382;-79
2022/06/27 08:00:57;;;;;;;25.00;15.68;;;;;;;18.61;85.28;99806.94;6244555;23;20561;-85
2022/06/27 08:03:40;;;;;;;32.83;18.58;;;;;;;18.43;86.10;99795.84;6246313;23;20039;-85
2022/06/27 08:06:15;;;;;;;24.85;15.48;;;;;;;18.55;85.35;99775.91;6242280;23;20034;-74
2022/06/27 08:08:43;;;;;;;26.60;17.90;;;;;;;18.58;84.53;99762.59;6240760;23;20031;-75
2022/06/27 08:11:11;;;;;;;27.60;17.98;;;;;;;18.46;84.82;99783.34;6244130;23;20033;-85
2022/06/27 08:13:37;;;;;;;29.27;16.23;;;;;;;18.48;85.66;99802.34;6245870;23;20004;-84
2022/06/27 08:16:05;;;;;;;25.80;18.92;;;;;;;18.56;83.90;99804.34;6242883;23;20000;-78
2022/06/27 08:18:31;;;;;;;24.95;17.38;;;;;;;18.76;83.57;99793.84;6240886;23;20502;-78
2022/06/27 08:21:00;;;;;;;28.40;16.73;;;;;;;19.07;83.11;99800.44;6243359;23;20004;-85
2022/06/27 08:23:26;;;;;;;30.02;16.13;;;;;;;18.96;83.65;99778.63;6245208;23;20004;-85
2022/06/27 08:25:51;;;;;;;22.98;14.80;;;;;;;19.29;83.23;99768.31;6245400;23;20027;-84
2022/06/27 08:28:19;;;;;;;26.27;16.15;;;;;;;19.40;81.94;99780.69;6244642;23;20024;-83
2022/06/27 08:30:45;;;;;;;29.65;19.27;;;;;;;19.70;80.74;99783.59;6242873;23;20455;-75
2022/06/27 08:33:12;;;;;;;28.38;19.73;;;;;;;19.71;81.54;99804.56;6239369;23;20005;-75
2022/06/27 08:35:39;;;;;;;27.15;19.73;;;;;;;19.59;80.58;99801.66;6238968;23;20004;-75
2022/06/27 08:38:05;;;;;;;35.88;23.42;;;;;;;19.19;80.55;99795.13;6239948;23;20012;-75
2022/06/27 08:40:31;;;;;;;38.42;26.48;;;;;;;19.20;81.62;99809.75;6240184;23;20035;-78
2022/06/27 08:42:57;;;;;;;41.55;28.02;;;;;;;19.33;81.37;99827.31;6240262;23;20027;-78
2022/06/27 08:45:25;;;;;;;46.10;30.25;;;;;;;19.08;83.42;99838.00;6241943;23;20000;-83
2022/06/27 08:47:51;;;;;;;36.55;26.00;;;;;;;19.07;82.18;99828.06;6245140;23;20140;-83
2022/06/27 08:50:18;;;;;;;44.70;27.00;;;;;;;19.02;82.95;99843.66;6243775;23;20540;-79
2022/06/27 08:52:45;;;;;;;37.78;24.90;;;;;;;19.01;83.15;99864.13;6241615;23;20028;-80
2022/06/27 08:55:11;;;;;;;38.63;26.05;;;;;;;19.00;83.61;99868.00;6242781;23;20327;-85
2022/06/27 08:57:39;;;;;;;41.35;25.63;;;;;;;19.11;82.74;99856.66;6246639;23;20008;-85
2022/06/27 09:00:06;;;;;;;41.35;25.63;;;;;;;18.99;83.82;99871.91;6244827;23;20007;-78
2022/06/27 09:02:36;;;;;;;38.10;25.10;;;;;;;19.15;84.00;99867.91;6241013;23;20005;-77
2022/06/27 09:05:03;;;;;;;38.22;27.73;;;;;;;19.14;83.39;99867.09;6240965;23;20031;-82
2022/06/27 09:07:49;;;;;;;36.60;24.85;;;;;;;18.93;83.97;99872.38;6244581;23;20008;-82
2022/06/27 09:10:39;;;;;;;44.72;26.83;;;;;;;18.87;84.07;99874.47;6245099;23;20011;-84
2022/06/27 09:13:08;;;;;;;32.67;20.00;;;;;;;18.82;83.36;99891.16;6246086;23;20008;-84
2022/06/27 09:15:39;;;;;;;33.67;21.85;;;;;;;18.94;84.65;99896.91;6243783;23;20369;-77
2022/06/27 09:18:06;;;;;;;42.85;23.38;;;;;;;19.02;84.35;99900.84;6239965;23;20416;-76
2022/06/27 09:20:49;;;;;;;36.53;22.33;;;;;;;19.04;84.43;99895.00;6240135;23;20008;-76
2022/06/27 09:23:41;;;;;;;32.28;18.75;;;;;;;19.16;83.78;99897.19;6240208;23;20016;-77
2022/06/27 09:26:25;;;;;;;30.15;18.42;;;;;;;18.94;83.64;99894.16;6242820;23;20023;-81
2022/06/27 09:29:08;;;;;;;27.33;17.70;;;;;;;18.84;83.09;99877.84;6244476;23;20008;-81
2022/06/27 09:31:42;;;;;;;31.33;20.20;;;;;;;18.98;82.73;99886.84;6245236;23;20008;-82
2022/06/27 09:34:14;;;;;;;29.17;18.33;;;;;;;18.95;82.85;99892.19;6245777;23;20075;-84
2022/06/27 09:36:47;;;;;;;28.33;18.60;;;;;;;18.72;83.59;99893.06;6246215;23;20054;-84
2022/06/27 09:39:34;;;;;;;34.53;18.70;;;;;;;18.90;84.26;99904.19;6246332;23;20612;-84
2022/06/27 09:42:09;;;;;;;25.80;16.67;;;;;;;18.89;83.44;99883.25;6239386;23;20075;-77
2022/06/27 09:44:40;;;;;;;25.67;17.13;;;;;;;19.15;82.35;99874.25;6212786;23;20095;-78
2022/06/27 09:47:05;;;;;;;26.02;18.27;;;;;;;19.46;81.61;99862.31;6240210;23;20511;-78
2022/06/27 09:49:36;;;;;;;30.40;18.48;;;;;;;19.53;81.44;99878.41;6240333;23;20027;-82
2022/06/27 09:52:05;;;;;;;25.67;18.33;;;;;;;19.54;81.11;99891.09;6241320;23;20012;-79
2022/06/27 09:54:33;;;;;;;34.58;17.02;;;;;;;19.80;80.53;99897.78;6242348;23;20366;-79
2022/06/27 09:56:59;;;;;;;25.25;17.98;;;;;;;19.78;80.28;99878.75;6241277;23;20159;-77
2022/06/27 09:59:24;;;;;;;30.48;18.00;;;;;;;19.95;80.00;99883.47;6241265;23;20012;-77
2022/06/27 10:01:50;;;;;;;22.45;15.55;;;;;;;19.70;79.49;99888.69;6241299;23;20082;-75
2022/06/27 10:04:16;;;;;;;25.38;16.80;;;;;;;19.96;79.17;99878.75;6241058;23;20367;-75
2022/06/27 10:06:42;;;;;;;23.23;16.75;;;;;;;19.74;79.44;99879.72;6240797;23;20031;-75
2022/06/27 10:09:08;;;;;;;28.08;17.85;;;;;;;19.78;79.15;99884.28;6240749;23;20008;-75
2022/06/27 10:11:36;;;;;;;29.83;17.75;;;;;;;19.56;79.37;99876.97;6240596;23;20012;-75
2022/06/27 10:14:22;;;;;;;23.90;17.40;;;;;;;19.54;78.88;99873.69;6241104;23;20031;-75
2022/06/27 10:16:59;;;;;;;29.40;16.85;;;;;;;19.63;79.18;99871.75;6215223;23;19996;-78
2022/06/27 10:19:29;;;;;;;22.67;15.80;;;;;;;19.94;78.49;99859.72;6241876;23;20074;-78
2022/06/27 10:21:56;;;;;;;19.15;15.05;;;;;;;20.12;78.11;99847.84;6241444;23;20035;-79
2022/06/27 10:24:24;;;;;;;22.20;15.07;;;;;;;20.16;77.04;99846.88;6241236;23;20008;-78
2022/06/27 10:27:02;;;;;;;19.55;12.73;;;;;;;20.36;76.63;99841.78;6246772;23;20075;-84
2022/06/27 10:29:28;;;;;;;17.92;13.68;;;;;;;20.62;76.38;99854.75;6247184;23;20010;-84
2022/06/27 10:31:53;;;;;;;17.58;13.23;;;;;;;21.18;74.18;99855.81;6247416;23;20004;-84
2022/06/27 10:34:44;;;;;;;21.13;12.38;;;;;;;21.16;72.93;99862.81;6247042;23;20054;-85
2022/06/27 10:37:25;;;;;;;18.33;14.30;;;;;;;21.18;72.75;99855.81;6240784;23;20032;-77
2022/06/27 10:39:51;;;;;;;23.42;15.43;;;;;;;21.21;73.29;99844.03;6241684;23;20436;-82
2022/06/27 10:42:52;;;;;;;19.45;12.77;;;;;;;21.31;72.88;99840.09;6242566;23;20071;-81
2022/06/27 10:45:20;;;;;;;20.83;13.65;;;;;;;21.15;71.90;99858.44;6243704;23;20010;-84
2022/06/27 10:47:49;;;;;;;20.00;14.40;;;;;;;20.94;72.03;99864.72;6246162;23;20113;-84
2022/06/27 10:50:17;;;;;;;31.05;16.52;;;;;;;21.31;71.40;99867.00;6246477;23;20012;-81
2022/06/27 10:52:43;;;;;;;20.50;15.93;;;;;;;21.14;71.64;99877.03;6244445;23;20314;-81
2022/06/27 10:55:22;;;;;;;20.60;14.02;;;;;;;20.63;72.57;99875.75;6243203;23;19996;-77
2022/06/27 10:57:48;;;;;;;21.80;16.52;;;;;;;20.76;72.24;99881.41;6240445;23;20412;-78
2022/06/27 11:00:38;;;;;;;21.90;14.90;;;;;;;20.83;72.65;99880.88;6241559;23;20026;-85
2022/06/27 11:03:04;;;;;;;23.65;14.43;;;;;;;20.83;72.36;99890.00;6246943;23;20083;-84
2022/06/27 11:05:49;;;;;;;23.55;15.27;;;;;;;20.72;72.14;99880.44;6244159;23;20040;-78
2022/06/27 11:08:15;;;;;;;17.02;13.00;;;;;;;20.76;71.32;99896.09;6241090;23;20105;-78
2022/06/27 11:10:42;;;;;;;24.48;13.70;;;;;;;20.59;71.82;99899.69;6243341;23;20028;-80
2022/06/27 11:13:08;;;;;;;17.40;12.55;;;;;;;20.59;71.98;99891.41;6244461;23;20336;-81
2022/06/27 11:15:33;;;;;;;18.52;13.15;;;;;;;20.65;72.69;99897.56;6242660;23;20010;-77
2022/06/27 11:18:07;;;;;;;19.10;14.57;;;;;;;20.49;72.81;99900.06;6241124;23;20062;-77
2022/06/27 11:20:32;;;;;;;23.33;16.17;;;;;;;20.42;73.34;99906.91;6240925;23;20256;-79
2022/06/27 11:22:59;;;;;;;23.73;16.63;;;;;;;20.27;74.20;99912.94;6241788;23;20019;-79
2022/06/27 11:25:27;;;;;;;23.98;16.25;;;;;;;20.39;73.52;99910.34;6240601;23;20416;-85
2022/06/27 11:27:58;;;;;;;23.33;16.95;;;;;;;20.46;73.08;99906.25;6241865;23;20008;-85
2022/06/27 11:33:26;;;;;;;22.40;15.90;;;;;;;20.63;72.96;99911.75;6240075;23;20015;-80